sensor_id;sensor_type;location;lat;lon;timestamp;temperature;humidity
67899;DHT22;54699;51.796;10.956;2023-07-29T00:01:54;23.60;61.10
67899;DHT22;54699;51.796;10.956;2023-07-29T00:04:21;23.60;61.20
67899;DHT22;54699;51.796;10.956;2023-07-29T00:06:47;23.60;61.20
67899;DHT22;54699;51.796;10.956;2023-07-29T00:09:14;23.60;61.30
67899;DHT22;54699;51.796;10.956;2023-07-29T00:11:42;23.60;61.40
67899;DHT22;54699;51.796;10.956;2023-07-29T00:14:09;23.50;61.30
67899;DHT22;54699;51.796;10.956;2023-07-29T00:16:35;23.60;61.50
67899;DHT22;54699;51.796;10.956;2023-07-29T00:19:02;23.60;61.60
67899;DHT22;54699;51.796;10.956;2023-07-29T00:21:29;23.50;61.70
67899;DHT22;54699;51.796;10.956;2023-07-29T00:23:56;23.60;61.70
67899;DHT22;54699;51.796;10.956;2023-07-29T00:26:23;23.60;61.70
67899;DHT22;54699;51.796;10.956;2023-07-29T00:28:52;23.50;61.40
67899;DHT22;54699;51.796;10.956;2023-07-29T00:31:19;23.50;61.70
67899;DHT22;54699;51.796;10.956;2023-07-29T00:33:46;23.60;61.80
67899;DHT22;54699;51.796;10.956;2023-07-29T00:36:12;23.60;61.70
67899;DHT22;54699;51.796;10.956;2023-07-29T00:38:39;23.60;61.70
67899;DHT22;54699;51.796;10.956;2023-07-29T00:41:06;23.50;61.50
67899;DHT22;54699;51.796;10.956;2023-07-29T00:43:33;23.50;61.50
67899;DHT22;54699;51.796;10.956;2023-07-29T00:46:01;23.50;61.40
67899;DHT22;54699;51.796;10.956;2023-07-29T00:48:28;23.50;61.30
67899;DHT22;54699;51.796;10.956;2023-07-29T00:50:55;23.50;61.30
67899;DHT22;54699;51.796;10.956;2023-07-29T00:53:22;23.50;61.30
67899;DHT22;54699;51.796;10.956;2023-07-29T00:55:48;23.50;61.30
67899;DHT22;54699;51.796;10.956;2023-07-29T00:58:15;23.50;61.40
67899;DHT22;54699;51.796;10.956;2023-07-29T01:00:42;23.50;61.40
67899;DHT22;54699;51.796;10.956;2023-07-29T01:03:10;23.50;61.40
67899;DHT22;54699;51.796;10.956;2023-07-29T01:05:39;23.60;61.40
67899;DHT22;54699;51.796;10.956;2023-07-29T01:08:15;23.50;61.40
67899;DHT22;54699;51.796;10.956;2023-07-29T01:10:51;23.50;61.30
67899;DHT22;54699;51.796;10.956;2023-07-29T01:13:26;23.50;61.40
67899;DHT22;54699;51.796;10.956;2023-07-29T01:15:59;23.50;61.40
67899;DHT22;54699;51.796;10.956;2023-07-29T01:18:32;23.50;61.60
67899;DHT22;54699;51.796;10.956;2023-07-29T01:21:03;23.50;61.50
67899;DHT22;54699;51.796;10.956;2023-07-29T01:23:32;23.50;61.70
67899;DHT22;54699;51.796;10.956;2023-07-29T01:26:00;23.50;61.70
67899;DHT22;54699;51.796;10.956;2023-07-29T01:28:27;23.50;61.60
67899;DHT22;54699;51.796;10.956;2023-07-29T01:30:56;23.50;61.70
67899;DHT22;54699;51.796;10.956;2023-07-29T01:33:30;23.50;61.40
67899;DHT22;54699;51.796;10.956;2023-07-29T01:36:02;23.50;61.50
67899;DHT22;54699;51.796;10.956;2023-07-29T01:38:35;23.50;61.60
67899;DHT22;54699;51.796;10.956;2023-07-29T01:41:06;23.50;61.40
67899;DHT22;54699;51.796;10.956;2023-07-29T01:43:34;23.50;61.30
67899;DHT22;54699;51.796;10.956;2023-07-29T01:46:08;23.50;61.40
67899;DHT22;54699;51.796;10.956;2023-07-29T01:48:36;23.50;61.50
67899;DHT22;54699;51.796;10.956;2023-07-29T01:51:03;23.50;61.40
67899;DHT22;54699;51.796;10.956;2023-07-29T01:53:34;23.50;61.40
67899;DHT22;54699;51.796;10.956;2023-07-29T01:56:01;23.50;61.40
67899;DHT22;54699;51.796;10.956;2023-07-29T01:58:28;23.50;61.40
67899;DHT22;54699;51.796;10.956;2023-07-29T02:00:55;23.50;61.30
67899;DHT22;54699;51.796;10.956;2023-07-29T02:03:22;23.50;61.40
67899;DHT22;54699;51.796;10.956;2023-07-29T02:05:49;23.50;61.40
67899;DHT22;54699;51.796;10.956;2023-07-29T02:08:16;23.50;61.30
67899;DHT22;54699;51.796;10.956;2023-07-29T02:10:44;23.50;61.40
67899;DHT22;54699;51.796;10.956;2023-07-29T02:13:11;23.50;61.20
67899;DHT22;54699;51.796;10.956;2023-07-29T02:15:38;23.50;61.30
67899;DHT22;54699;51.796;10.956;2023-07-29T02:18:05;23.50;61.40
67899;DHT22;54699;51.796;10.956;2023-07-29T02:20:32;23.50;61.30
67899;DHT22;54699;51.796;10.956;2023-07-29T02:22:59;23.40;61.20
67899;DHT22;54699;51.796;10.956;2023-07-29T02:25:27;23.40;61.20
67899;DHT22;54699;51.796;10.956;2023-07-29T02:27:55;23.50;61.20
67899;DHT22;54699;51.796;10.956;2023-07-29T02:30:22;23.50;61.20
67899;DHT22;54699;51.796;10.956;2023-07-29T02:32:49;23.50;61.20
67899;DHT22;54699;51.796;10.956;2023-07-29T02:35:16;23.50;61.30
67899;DHT22;54699;51.796;10.956;2023-07-29T02:37:43;23.50;61.10
67899;DHT22;54699;51.796;10.956;2023-07-29T02:40:10;23.40;61.20
67899;DHT22;54699;51.796;10.956;2023-07-29T02:42:38;23.50;61.20
67899;DHT22;54699;51.796;10.956;2023-07-29T02:45:06;23.40;61.20
67899;DHT22;54699;51.796;10.956;2023-07-29T02:47:36;23.50;61.30
67899;DHT22;54699;51.796;10.956;2023-07-29T02:50:03;23.50;61.10
67899;DHT22;54699;51.796;10.956;2023-07-29T02:52:31;23.40;61.10
67899;DHT22;54699;51.796;10.956;2023-07-29T02:54:58;23.40;61.10
67899;DHT22;54699;51.796;10.956;2023-07-29T02:57:25;23.50;61.20
67899;DHT22;54699;51.796;10.956;2023-07-29T02:59:52;23.50;61.10
67899;DHT22;54699;51.796;10.956;2023-07-29T03:02:21;23.40;61.10
67899;DHT22;54699;51.796;10.956;2023-07-29T03:04:48;23.40;61.10
67899;DHT22;54699;51.796;10.956;2023-07-29T03:07:15;23.40;61.10
67899;DHT22;54699;51.796;10.956;2023-07-29T03:09:42;23.40;61.00
67899;DHT22;54699;51.796;10.956;2023-07-29T03:12:10;23.40;61.00
67899;DHT22;54699;51.796;10.956;2023-07-29T03:14:37;23.40;61.00
67899;DHT22;54699;51.796;10.956;2023-07-29T03:17:04;23.40;61.00
67899;DHT22;54699;51.796;10.956;2023-07-29T03:19:36;23.40;61.90
67899;DHT22;54699;51.796;10.956;2023-07-29T03:22:03;23.40;61.00
67899;DHT22;54699;51.796;10.956;2023-07-29T03:24:30;23.40;60.90
67899;DHT22;54699;51.796;10.956;2023-07-29T03:26:58;23.40;60.90
67899;DHT22;54699;51.796;10.956;2023-07-29T03:29:24;23.40;61.10
67899;DHT22;54699;51.796;10.956;2023-07-29T03:31:51;23.40;61.10
67899;DHT22;54699;51.796;10.956;2023-07-29T03:34:18;23.40;61.00
67899;DHT22;54699;51.796;10.956;2023-07-29T03:36:47;23.40;61.00
67899;DHT22;54699;51.796;10.956;2023-07-29T03:39:14;23.40;61.00
67899;DHT22;54699;51.796;10.956;2023-07-29T03:41:41;23.40;61.00
67899;DHT22;54699;51.796;10.956;2023-07-29T03:44:07;23.40;61.00
67899;DHT22;54699;51.796;10.956;2023-07-29T03:46:34;23.40;61.10
67899;DHT22;54699;51.796;10.956;2023-07-29T03:49:01;23.40;61.10
67899;DHT22;54699;51.796;10.956;2023-07-29T03:51:28;23.40;61.10
67899;DHT22;54699;51.796;10.956;2023-07-29T03:53:56;23.30;60.90
67899;DHT22;54699;51.796;10.956;2023-07-29T03:56:23;23.40;61.00
67899;DHT22;54699;51.796;10.956;2023-07-29T03:58:50;23.40;61.10
67899;DHT22;54699;51.796;10.956;2023-07-29T04:01:18;23.40;61.10
67899;DHT22;54699;51.796;10.956;2023-07-29T04:03:45;23.40;61.10
67899;DHT22;54699;51.796;10.956;2023-07-29T04:06:12;23.40;61.10
67899;DHT22;54699;51.796;10.956;2023-07-29T04:08:39;23.40;61.00
67899;DHT22;54699;51.796;10.956;2023-07-29T04:11:08;23.40;61.00
67899;DHT22;54699;51.796;10.956;2023-07-29T04:13:35;23.40;61.10
67899;DHT22;54699;51.796;10.956;2023-07-29T04:16:03;23.30;61.00
67899;DHT22;54699;51.796;10.956;2023-07-29T04:18:30;23.30;61.10
67899;DHT22;54699;51.796;10.956;2023-07-29T04:20:56;23.30;61.10
67899;DHT22;54699;51.796;10.956;2023-07-29T04:23:23;23.30;61.10
67899;DHT22;54699;51.796;10.956;2023-07-29T04:25:50;23.30;61.10
67899;DHT22;54699;51.796;10.956;2023-07-29T04:28:18;23.30;61.00
67899;DHT22;54699;51.796;10.956;2023-07-29T04:30:45;23.30;61.20
67899;DHT22;54699;51.796;10.956;2023-07-29T04:33:12;23.30;61.20
67899;DHT22;54699;51.796;10.956;2023-07-29T04:35:40;23.40;61.10
67899;DHT22;54699;51.796;10.956;2023-07-29T04:38:07;23.30;61.20
67899;DHT22;54699;51.796;10.956;2023-07-29T04:40:34;23.30;61.40
67899;DHT22;54699;51.796;10.956;2023-07-29T04:43:01;23.40;61.50
67899;DHT22;54699;51.796;10.956;2023-07-29T04:45:29;23.30;61.40
67899;DHT22;54699;51.796;10.956;2023-07-29T04:47:57;23.40;61.50
67899;DHT22;54699;51.796;10.956;2023-07-29T04:50:24;23.30;61.60
67899;DHT22;54699;51.796;10.956;2023-07-29T04:52:51;23.30;61.60
67899;DHT22;54699;51.796;10.956;2023-07-29T04:55:19;23.40;61.80
67899;DHT22;54699;51.796;10.956;2023-07-29T04:57:46;23.30;61.80
67899;DHT22;54699;51.796;10.956;2023-07-29T05:00:16;23.30;61.90
67899;DHT22;54699;51.796;10.956;2023-07-29T05:02:47;23.30;62.00
67899;DHT22;54699;51.796;10.956;2023-07-29T05:05:16;23.30;61.90
67899;DHT22;54699;51.796;10.956;2023-07-29T05:07:43;23.40;62.10
67899;DHT22;54699;51.796;10.956;2023-07-29T05:10:10;23.40;62.00
67899;DHT22;54699;51.796;10.956;2023-07-29T05:12:38;23.30;62.10
67899;DHT22;54699;51.796;10.956;2023-07-29T05:15:05;23.30;62.10
67899;DHT22;54699;51.796;10.956;2023-07-29T05:17:33;23.30;62.20
67899;DHT22;54699;51.796;10.956;2023-07-29T05:20:02;23.40;62.20
67899;DHT22;54699;51.796;10.956;2023-07-29T05:22:29;23.40;62.20
67899;DHT22;54699;51.796;10.956;2023-07-29T05:24:56;23.30;62.30
67899;DHT22;54699;51.796;10.956;2023-07-29T05:27:23;23.40;62.30
67899;DHT22;54699;51.796;10.956;2023-07-29T05:29:50;23.40;62.30
67899;DHT22;54699;51.796;10.956;2023-07-29T05:32:17;23.40;62.30
67899;DHT22;54699;51.796;10.956;2023-07-29T05:34:45;23.30;62.30
67899;DHT22;54699;51.796;10.956;2023-07-29T05:37:13;23.30;62.40
67899;DHT22;54699;51.796;10.956;2023-07-29T05:39:41;23.40;62.40
67899;DHT22;54699;51.796;10.956;2023-07-29T05:42:08;23.30;62.50
67899;DHT22;54699;51.796;10.956;2023-07-29T05:44:35;23.40;62.50
67899;DHT22;54699;51.796;10.956;2023-07-29T05:47:02;23.30;62.40
67899;DHT22;54699;51.796;10.956;2023-07-29T05:49:29;23.30;62.30
67899;DHT22;54699;51.796;10.956;2023-07-29T05:51:59;23.30;62.20
67899;DHT22;54699;51.796;10.956;2023-07-29T05:54:28;23.30;63.20
67899;DHT22;54699;51.796;10.956;2023-07-29T05:56:55;23.40;62.40
67899;DHT22;54699;51.796;10.956;2023-07-29T05:59:21;23.30;62.50
67899;DHT22;54699;51.796;10.956;2023-07-29T06:01:48;23.40;62.50
67899;DHT22;54699;51.796;10.956;2023-07-29T06:04:15;23.30;62.40
67899;DHT22;54699;51.796;10.956;2023-07-29T06:06:42;23.30;63.00
67899;DHT22;54699;51.796;10.956;2023-07-29T06:09:09;23.30;62.30
67899;DHT22;54699;51.796;10.956;2023-07-29T06:11:37;23.30;62.50
67899;DHT22;54699;51.796;10.956;2023-07-29T06:14:04;23.30;62.70
67899;DHT22;54699;51.796;10.956;2023-07-29T06:16:30;23.30;62.70
67899;DHT22;54699;51.796;10.956;2023-07-29T06:18:58;23.30;62.70
67899;DHT22;54699;51.796;10.956;2023-07-29T06:21:24;23.30;62.80
67899;DHT22;54699;51.796;10.956;2023-07-29T06:23:51;23.40;62.90
67899;DHT22;54699;51.796;10.956;2023-07-29T06:26:18;23.30;62.80
67899;DHT22;54699;51.796;10.956;2023-07-29T06:28:46;23.30;62.90
67899;DHT22;54699;51.796;10.956;2023-07-29T06:31:13;23.30;62.80
67899;DHT22;54699;51.796;10.956;2023-07-29T06:33:40;23.40;62.80
67899;DHT22;54699;51.796;10.956;2023-07-29T06:36:07;23.30;62.40
67899;DHT22;54699;51.796;10.956;2023-07-29T06:38:33;23.40;62.50
67899;DHT22;54699;51.796;10.956;2023-07-29T06:41:00;23.40;62.30
67899;DHT22;54699;51.796;10.956;2023-07-29T06:43:27;23.30;62.00
67899;DHT22;54699;51.796;10.956;2023-07-29T06:45:55;23.30;62.10
67899;DHT22;54699;51.796;10.956;2023-07-29T06:48:22;23.30;62.30
67899;DHT22;54699;51.796;10.956;2023-07-29T06:50:49;23.40;62.50
67899;DHT22;54699;51.796;10.956;2023-07-29T06:53:16;23.40;62.30
67899;DHT22;54699;51.796;10.956;2023-07-29T06:55:43;23.30;62.40
67899;DHT22;54699;51.796;10.956;2023-07-29T06:58:10;23.40;62.50
67899;DHT22;54699;51.796;10.956;2023-07-29T07:00:37;23.30;62.40
67899;DHT22;54699;51.796;10.956;2023-07-29T07:03:06;23.40;62.50
67899;DHT22;54699;51.796;10.956;2023-07-29T07:05:33;23.30;62.60
67899;DHT22;54699;51.796;10.956;2023-07-29T07:08:00;23.30;62.50
67899;DHT22;54699;51.796;10.956;2023-07-29T07:10:27;23.30;62.30
67899;DHT22;54699;51.796;10.956;2023-07-29T07:12:53;23.30;62.50
67899;DHT22;54699;51.796;10.956;2023-07-29T07:15:20;23.30;62.50
67899;DHT22;54699;51.796;10.956;2023-07-29T07:17:47;23.40;62.40
67899;DHT22;54699;51.796;10.956;2023-07-29T07:20:16;23.40;62.40
67899;DHT22;54699;51.796;10.956;2023-07-29T07:22:43;23.40;62.30
67899;DHT22;54699;51.796;10.956;2023-07-29T07:25:10;23.40;62.20
67899;DHT22;54699;51.796;10.956;2023-07-29T07:27:36;23.40;62.10
67899;DHT22;54699;51.796;10.956;2023-07-29T07:30:04;23.40;62.10
67899;DHT22;54699;51.796;10.956;2023-07-29T07:32:31;23.40;62.00
67899;DHT22;54699;51.796;10.956;2023-07-29T07:34:58;23.40;62.10
67899;DHT22;54699;51.796;10.956;2023-07-29T07:37:27;23.40;62.10
67899;DHT22;54699;51.796;10.956;2023-07-29T07:39:53;23.50;62.10
67899;DHT22;54699;51.796;10.956;2023-07-29T07:42:20;23.40;62.10
67899;DHT22;54699;51.796;10.956;2023-07-29T07:44:47;23.40;62.00
67899;DHT22;54699;51.796;10.956;2023-07-29T07:47:14;23.50;62.20
67899;DHT22;54699;51.796;10.956;2023-07-29T07:49:41;23.50;62.10
67899;DHT22;54699;51.796;10.956;2023-07-29T07:52:08;23.50;62.00
67899;DHT22;54699;51.796;10.956;2023-07-29T07:54:36;23.40;62.10
67899;DHT22;54699;51.796;10.956;2023-07-29T07:57:03;23.40;61.90
67899;DHT22;54699;51.796;10.956;2023-07-29T07:59:31;23.50;62.20
67899;DHT22;54699;51.796;10.956;2023-07-29T08:01:58;23.50;62.00
67899;DHT22;54699;51.796;10.956;2023-07-29T08:04:25;23.50;62.10
67899;DHT22;54699;51.796;10.956;2023-07-29T08:06:52;23.50;62.20
67899;DHT22;54699;51.796;10.956;2023-07-29T08:09:19;23.50;62.10
67899;DHT22;54699;51.796;10.956;2023-07-29T08:11:47;23.50;62.20
67899;DHT22;54699;51.796;10.956;2023-07-29T08:14:14;23.50;62.20
67899;DHT22;54699;51.796;10.956;2023-07-29T08:16:41;23.50;62.10
67899;DHT22;54699;51.796;10.956;2023-07-29T08:19:08;23.50;62.10
67899;DHT22;54699;51.796;10.956;2023-07-29T08:21:35;23.50;62.20
67899;DHT22;54699;51.796;10.956;2023-07-29T08:24:02;23.50;62.20
67899;DHT22;54699;51.796;10.956;2023-07-29T08:26:30;23.50;62.20
67899;DHT22;54699;51.796;10.956;2023-07-29T08:28:58;23.50;62.20
67899;DHT22;54699;51.796;10.956;2023-07-29T08:31:25;23.50;62.30
67899;DHT22;54699;51.796;10.956;2023-07-29T08:33:52;23.50;62.30
67899;DHT22;54699;51.796;10.956;2023-07-29T08:36:19;23.50;62.50
67899;DHT22;54699;51.796;10.956;2023-07-29T08:38:46;23.50;62.70
67899;DHT22;54699;51.796;10.956;2023-07-29T08:41:13;23.50;62.70
67899;DHT22;54699;51.796;10.956;2023-07-29T08:43:43;23.50;62.80
67899;DHT22;54699;51.796;10.956;2023-07-29T08:46:18;23.50;62.80
67899;DHT22;54699;51.796;10.956;2023-07-29T08:48:45;23.50;62.90
67899;DHT22;54699;51.796;10.956;2023-07-29T08:51:12;23.50;62.80
67899;DHT22;54699;51.796;10.956;2023-07-29T08:53:41;23.50;62.60
67899;DHT22;54699;51.796;10.956;2023-07-29T08:56:08;23.50;62.60
67899;DHT22;54699;51.796;10.956;2023-07-29T08:58:35;23.50;62.50
67899;DHT22;54699;51.796;10.956;2023-07-29T09:01:03;23.50;62.40
67899;DHT22;54699;51.796;10.956;2023-07-29T09:03:31;23.50;62.50
67899;DHT22;54699;51.796;10.956;2023-07-29T09:05:58;23.50;62.50
67899;DHT22;54699;51.796;10.956;2023-07-29T09:08:26;23.50;62.60
67899;DHT22;54699;51.796;10.956;2023-07-29T09:10:54;23.50;62.50
67899;DHT22;54699;51.796;10.956;2023-07-29T09:13:21;23.50;62.60
67899;DHT22;54699;51.796;10.956;2023-07-29T09:15:48;23.50;62.60
67899;DHT22;54699;51.796;10.956;2023-07-29T09:18:16;23.50;62.60
67899;DHT22;54699;51.796;10.956;2023-07-29T09:20:45;23.50;62.60
67899;DHT22;54699;51.796;10.956;2023-07-29T09:23:13;23.50;62.60
67899;DHT22;54699;51.796;10.956;2023-07-29T09:25:40;23.50;62.60
67899;DHT22;54699;51.796;10.956;2023-07-29T09:28:07;23.50;62.70
67899;DHT22;54699;51.796;10.956;2023-07-29T09:30:35;23.50;62.70
67899;DHT22;54699;51.796;10.956;2023-07-29T09:33:02;23.50;62.80
67899;DHT22;54699;51.796;10.956;2023-07-29T09:35:29;23.50;62.90
67899;DHT22;54699;51.796;10.956;2023-07-29T09:38:00;23.50;62.80
67899;DHT22;54699;51.796;10.956;2023-07-29T09:40:27;23.50;62.80
67899;DHT22;54699;51.796;10.956;2023-07-29T09:42:54;23.50;62.90
67899;DHT22;54699;51.796;10.956;2023-07-29T09:45:21;23.50;62.90
67899;DHT22;54699;51.796;10.956;2023-07-29T09:47:49;23.50;62.90
67899;DHT22;54699;51.796;10.956;2023-07-29T09:50:16;23.50;62.90
67899;DHT22;54699;51.796;10.956;2023-07-29T09:52:44;23.50;63.00
67899;DHT22;54699;51.796;10.956;2023-07-29T09:55:13;23.50;62.90
67899;DHT22;54699;51.796;10.956;2023-07-29T09:57:40;23.50;62.90
67899;DHT22;54699;51.796;10.956;2023-07-29T10:00:07;23.50;62.90
67899;DHT22;54699;51.796;10.956;2023-07-29T10:02:37;23.50;62.90
67899;DHT22;54699;51.796;10.956;2023-07-29T10:05:05;23.50;62.90
67899;DHT22;54699;51.796;10.956;2023-07-29T10:07:34;23.50;62.80
67899;DHT22;54699;51.796;10.956;2023-07-29T10:10:03;23.50;62.80
67899;DHT22;54699;51.796;10.956;2023-07-29T10:12:32;23.50;62.60
67899;DHT22;54699;51.796;10.956;2023-07-29T10:15:02;23.60;62.60
67899;DHT22;54699;51.796;10.956;2023-07-29T10:17:30;23.50;62.50
67899;DHT22;54699;51.796;10.956;2023-07-29T10:20:01;23.60;62.40
67899;DHT22;54699;51.796;10.956;2023-07-29T10:22:32;23.50;62.30
67899;DHT22;54699;51.796;10.956;2023-07-29T10:25:02;23.60;62.30
67899;DHT22;54699;51.796;10.956;2023-07-29T10:27:35;23.60;62.30
67899;DHT22;54699;51.796;10.956;2023-07-29T10:30:10;23.60;62.20
67899;DHT22;54699;51.796;10.956;2023-07-29T10:32:38;23.60;62.20
67899;DHT22;54699;51.796;10.956;2023-07-29T10:35:08;23.60;62.10
67899;DHT22;54699;51.796;10.956;2023-07-29T10:37:36;23.60;62.10
67899;DHT22;54699;51.796;10.956;2023-07-29T10:40:06;23.60;62.10
67899;DHT22;54699;51.796;10.956;2023-07-29T10:42:36;23.60;62.00
67899;DHT22;54699;51.796;10.956;2023-07-29T10:45:19;23.60;62.00
67899;DHT22;54699;51.796;10.956;2023-07-29T10:47:47;23.60;62.10
67899;DHT22;54699;51.796;10.956;2023-07-29T10:50:18;23.60;62.10
67899;DHT22;54699;51.796;10.956;2023-07-29T10:52:48;23.60;62.10
67899;DHT22;54699;51.796;10.956;2023-07-29T10:55:26;23.60;62.30
67899;DHT22;54699;51.796;10.956;2023-07-29T11:00:50;23.60;62.10
67899;DHT22;54699;51.796;10.956;2023-07-29T11:03:17;23.60;62.00
67899;DHT22;54699;51.796;10.956;2023-07-29T11:05:45;23.60;62.00
67899;DHT22;54699;51.796;10.956;2023-07-29T11:08:18;23.60;62.00
67899;DHT22;54699;51.796;10.956;2023-07-29T11:11:00;23.60;61.90
67899;DHT22;54699;51.796;10.956;2023-07-29T11:13:30;23.60;62.00
67899;DHT22;54699;51.796;10.956;2023-07-29T11:15:59;23.60;62.00
67899;DHT22;54699;51.796;10.956;2023-07-29T11:18:27;23.70;61.90
67899;DHT22;54699;51.796;10.956;2023-07-29T11:20:56;23.60;61.90
67899;DHT22;54699;51.796;10.956;2023-07-29T11:23:27;23.60;61.90
67899;DHT22;54699;51.796;10.956;2023-07-29T11:25:58;23.70;63.30
67899;DHT22;54699;51.796;10.956;2023-07-29T11:28:25;23.70;63.50
67899;DHT22;54699;51.796;10.956;2023-07-29T11:30:57;23.70;64.10
67899;DHT22;54699;51.796;10.956;2023-07-29T11:33:25;23.70;63.90
67899;DHT22;54699;51.796;10.956;2023-07-29T11:35:53;23.70;63.70
67899;DHT22;54699;51.796;10.956;2023-07-29T11:38:21;23.70;63.40
67899;DHT22;54699;51.796;10.956;2023-07-29T11:40:55;23.70;64.60
67899;DHT22;54699;51.796;10.956;2023-07-29T11:43:23;23.70;63.80
67899;DHT22;54699;51.796;10.956;2023-07-29T11:45:50;23.70;63.50
67899;DHT22;54699;51.796;10.956;2023-07-29T11:48:21;23.70;64.10
67899;DHT22;54699;51.796;10.956;2023-07-29T11:50:53;23.70;64.50
67899;DHT22;54699;51.796;10.956;2023-07-29T11:53:20;23.80;64.50
67899;DHT22;54699;51.796;10.956;2023-07-29T11:55:49;23.80;64.90
67899;DHT22;54699;51.796;10.956;2023-07-29T11:58:17;23.80;65.10
67899;DHT22;54699;51.796;10.956;2023-07-29T12:00:44;23.80;64.80
67899;DHT22;54699;51.796;10.956;2023-07-29T12:03:11;23.90;65.00
67899;DHT22;54699;51.796;10.956;2023-07-29T12:05:40;23.90;65.60
67899;DHT22;54699;51.796;10.956;2023-07-29T12:08:07;23.90;65.50
67899;DHT22;54699;51.796;10.956;2023-07-29T12:10:34;24.00;65.70
67899;DHT22;54699;51.796;10.956;2023-07-29T12:13:02;24.00;65.70
67899;DHT22;54699;51.796;10.956;2023-07-29T12:15:29;24.00;66.40
67899;DHT22;54699;51.796;10.956;2023-07-29T12:17:57;24.00;66.60
67899;DHT22;54699;51.796;10.956;2023-07-29T12:20:25;24.00;66.60
67899;DHT22;54699;51.796;10.956;2023-07-29T12:22:55;24.10;65.90
67899;DHT22;54699;51.796;10.956;2023-07-29T12:25:23;24.00;65.60
67899;DHT22;54699;51.796;10.956;2023-07-29T12:27:50;24.00;65.20
67899;DHT22;54699;51.796;10.956;2023-07-29T12:30:19;24.00;64.40
67899;DHT22;54699;51.796;10.956;2023-07-29T12:32:47;24.00;64.30
67899;DHT22;54699;51.796;10.956;2023-07-29T12:35:14;24.00;64.20
67899;DHT22;54699;51.796;10.956;2023-07-29T12:37:41;24.00;64.20
67899;DHT22;54699;51.796;10.956;2023-07-29T12:40:20;24.00;65.00
67899;DHT22;54699;51.796;10.956;2023-07-29T12:42:48;24.00;64.30
67899;DHT22;54699;51.796;10.956;2023-07-29T12:45:15;24.00;64.50
67899;DHT22;54699;51.796;10.956;2023-07-29T12:47:42;24.00;65.00
67899;DHT22;54699;51.796;10.956;2023-07-29T12:50:09;24.00;65.70
67899;DHT22;54699;51.796;10.956;2023-07-29T12:52:36;24.00;65.30
67899;DHT22;54699;51.796;10.956;2023-07-29T12:55:03;24.00;65.10
67899;DHT22;54699;51.796;10.956;2023-07-29T12:57:32;24.00;65.00
67899;DHT22;54699;51.796;10.956;2023-07-29T12:59:59;24.10;64.80
67899;DHT22;54699;51.796;10.956;2023-07-29T13:02:26;24.10;64.90
67899;DHT22;54699;51.796;10.956;2023-07-29T13:04:53;24.10;65.10
67899;DHT22;54699;51.796;10.956;2023-07-29T13:07:20;24.10;65.40
67899;DHT22;54699;51.796;10.956;2023-07-29T13:09:46;24.10;65.10
67899;DHT22;54699;51.796;10.956;2023-07-29T13:12:13;24.10;65.10
67899;DHT22;54699;51.796;10.956;2023-07-29T13:14:41;24.10;65.50
67899;DHT22;54699;51.796;10.956;2023-07-29T13:17:08;24.20;66.00
67899;DHT22;54699;51.796;10.956;2023-07-29T13:19:35;24.20;65.60
67899;DHT22;54699;51.796;10.956;2023-07-29T13:22:02;24.20;65.20
67899;DHT22;54699;51.796;10.956;2023-07-29T13:24:29;24.20;64.90
67899;DHT22;54699;51.796;10.956;2023-07-29T13:26:57;24.20;65.30
67899;DHT22;54699;51.796;10.956;2023-07-29T13:29:24;24.20;65.30
67899;DHT22;54699;51.796;10.956;2023-07-29T13:31:52;24.30;65.30
67899;DHT22;54699;51.796;10.956;2023-07-29T13:34:20;24.30;65.00
67899;DHT22;54699;51.796;10.956;2023-07-29T13:36:47;24.40;65.30
67899;DHT22;54699;51.796;10.956;2023-07-29T13:39:13;24.40;65.30
67899;DHT22;54699;51.796;10.956;2023-07-29T13:41:40;24.40;65.20
67899;DHT22;54699;51.796;10.956;2023-07-29T13:44:07;24.40;65.30
67899;DHT22;54699;51.796;10.956;2023-07-29T13:46:34;24.40;65.20
67899;DHT22;54699;51.796;10.956;2023-07-29T13:49:01;24.40;65.20
67899;DHT22;54699;51.796;10.956;2023-07-29T13:51:28;24.50;65.40
67899;DHT22;54699;51.796;10.956;2023-07-29T13:53:55;24.50;65.50
67899;DHT22;54699;51.796;10.956;2023-07-29T13:56:22;24.50;65.30
67899;DHT22;54699;51.796;10.956;2023-07-29T13:58:49;24.50;65.10
67899;DHT22;54699;51.796;10.956;2023-07-29T14:01:16;24.50;65.30
67899;DHT22;54699;51.796;10.956;2023-07-29T14:03:43;24.50;65.10
67899;DHT22;54699;51.796;10.956;2023-07-29T14:06:11;24.60;65.50
67899;DHT22;54699;51.796;10.956;2023-07-29T14:08:38;24.60;65.70
67899;DHT22;54699;51.796;10.956;2023-07-29T14:11:06;24.60;65.30
67899;DHT22;54699;51.796;10.956;2023-07-29T14:13:33;24.60;65.10
67899;DHT22;54699;51.796;10.956;2023-07-29T14:16:00;24.60;65.40
67899;DHT22;54699;51.796;10.956;2023-07-29T14:18:27;24.60;65.10
67899;DHT22;54699;51.796;10.956;2023-07-29T14:20:54;24.60;65.20
67899;DHT22;54699;51.796;10.956;2023-07-29T14:23:23;24.70;65.00
67899;DHT22;54699;51.796;10.956;2023-07-29T14:25:49;24.70;65.00
67899;DHT22;54699;51.796;10.956;2023-07-29T14:28:16;24.70;65.10
67899;DHT22;54699;51.796;10.956;2023-07-29T14:30:43;24.70;64.60
67899;DHT22;54699;51.796;10.956;2023-07-29T14:33:10;24.70;65.10
67899;DHT22;54699;51.796;10.956;2023-07-29T14:35:37;24.70;65.50
67899;DHT22;54699;51.796;10.956;2023-07-29T14:38:04;24.70;65.10
67899;DHT22;54699;51.796;10.956;2023-07-29T14:40:32;24.70;65.30
67899;DHT22;54699;51.796;10.956;2023-07-29T14:42:59;24.70;65.10
67899;DHT22;54699;51.796;10.956;2023-07-29T14:45:26;24.70;65.30
67899;DHT22;54699;51.796;10.956;2023-07-29T14:47:53;24.80;65.00
67899;DHT22;54699;51.796;10.956;2023-07-29T14:50:20;24.80;65.10
67899;DHT22;54699;51.796;10.956;2023-07-29T14:52:46;24.80;65.10
67899;DHT22;54699;51.796;10.956;2023-07-29T14:55:13;24.80;65.20
67899;DHT22;54699;51.796;10.956;2023-07-29T14:57:41;24.80;65.90
67899;DHT22;54699;51.796;10.956;2023-07-29T15:00:09;24.80;65.30
67899;DHT22;54699;51.796;10.956;2023-07-29T15:02:36;24.90;65.20
67899;DHT22;54699;51.796;10.956;2023-07-29T15:05:04;24.90;65.10
67899;DHT22;54699;51.796;10.956;2023-07-29T15:07:31;24.90;65.40
67899;DHT22;54699;51.796;10.956;2023-07-29T15:09:58;24.90;65.30
67899;DHT22;54699;51.796;10.956;2023-07-29T15:12:25;24.90;65.50
67899;DHT22;54699;51.796;10.956;2023-07-29T15:14:53;24.90;65.40
67899;DHT22;54699;51.796;10.956;2023-07-29T15:17:20;24.90;65.30
67899;DHT22;54699;51.796;10.956;2023-07-29T15:19:47;24.90;65.30
67899;DHT22;54699;51.796;10.956;2023-07-29T15:22:15;24.90;65.90